Time;durP1;ratioP1;P1;durP2;ratioP2;P2;SDS_P1;SDS_P2;PMS_P1;PMS_P2;Temp;Humidity;BMP_temperature;BMP_pressure;BME280_temperature;BME280_humidity;BME280_pressure;Samples;Min_cycle;Max_cycle;Signal;HPM_P1;HPM_P2
2023/04/02 00:08:57;;;;;;;10.40;2.40;;;;;;;8.88;100.00;99514.63;31378199;28;20041;-82
2023/04/02 00:24:01;;;;;;;11.17;2.03;;;;;;;8.85;100.00;99539.06;31418978;28;20086;-82
2023/04/02 00:39:11;;;;;;;7.37;2.23;;;;;;;8.79;100.00;99551.56;31432558;28;20048;-82
2023/04/02 00:54:22;;;;;;;5.97;1.90;;;;;;;8.82;100.00;99532.53;31477739;28;20041;-82
2023/04/02 01:10:05;;;;;;;5.67;1.70;;;;;;;8.81;100.00;99532.97;31399844;28;20057;-82
2023/04/02 01:25:07;;;;;;;5.87;1.80;;;;;;;8.87;100.00;99531.28;31399150;28;20104;-83
2023/04/02 01:40:18;;;;;;;6.20;1.70;;;;;;;9.03;100.00;99534.00;31454360;28;20399;-85
2023/04/02 01:55:31;;;;;;;4.10;1.40;;;;;;;8.91;100.00;99540.09;31420123;28;20064;-84
2023/04/02 02:10:38;;;;;;;2.17;1.47;;;;;;;8.97;100.00;99551.97;31325522;28;20045;-82
2023/04/02 02:25:53;;;;;;;4.07;1.50;;;;;;;9.00;100.00;99534.09;31387427;28;20110;-81
2023/04/02 02:56:48;;;;;;;4.97;1.20;;;;;;;9.01;100.00;99543.75;31443362;28;20433;-82
2023/04/02 03:12:00;;;;;;;4.13;1.40;;;;;;;9.06;100.00;99552.13;31533354;28;20062;-82
2023/04/02 03:43:40;;;;;;;5.03;1.60;;;;;;;9.02;100.00;99551.44;31570231;28;20666;-84
2023/04/02 03:59:15;;;;;;;3.83;1.40;;;;;;;9.26;100.00;99559.44;31514737;28;20506;-83
2023/04/02 04:14:36;;;;;;;1.93;1.10;;;;;;;9.36;100.00;99558.44;31534438;28;20047;-84
2023/04/02 04:30:33;;;;;;;2.07;1.30;;;;;;;9.36;100.00;99567.31;31485193;28;20135;-84
2023/04/02 04:46:04;;;;;;;1.42;1.33;;;;;;;9.41;100.00;99563.34;31471834;28;20091;-83
2023/04/02 05:01:14;;;;;;;1.70;1.50;;;;;;;9.39;100.00;99560.28;31494109;28;20045;-85
2023/04/02 05:16:45;;;;;;;3.30;2.03;;;;;;;9.61;100.00;99564.03;31449649;28;20053;-84
2023/04/02 05:31:53;;;;;;;4.03;1.97;;;;;;;9.95;100.00;99560.06;31376395;28;20045;-84
2023/04/02 05:47:24;;;;;;;4.70;2.07;;;;;;;9.91;100.00;99563.66;31400298;28;20045;-83
2023/04/02 06:02:35;;;;;;;2.23;1.80;;;;;;;10.00;100.00;99546.00;31368912;28;20570;-85
2023/04/02 06:17:46;;;;;;;2.90;1.60;;;;;;;10.14;100.00;99556.50;31453136;28;20110;-83
2023/04/02 06:32:48;;;;;;;2.13;1.57;;;;;;;10.57;100.00;99559.59;31508204;28;20764;-85
2023/04/02 06:47:51;;;;;;;3.83;1.20;;;;;;;11.19;100.00;99554.63;31513648;28;20097;-84
2023/04/02 07:02:55;;;;;;;3.53;1.20;;;;;;;11.77;100.00;99562.53;31539203;28;20045;-84
2023/04/02 07:17:58;;;;;;;0.93;0.90;;;;;;;11.90;100.00;99563.25;31517355;28;20078;-84
2023/04/02 07:33:01;;;;;;;1.00;0.90;;;;;;;12.03;92.23;99544.19;31497498;28;20485;-85
2023/04/02 07:48:12;;;;;;;1.63;1.00;;;;;;;12.48;82.28;99541.03;31551878;28;20382;-82
2023/04/02 08:03:33;;;;;;;1.20;0.87;;;;;;;12.93;62.02;99553.38;31503945;28;20117;-83
2023/04/02 08:18:37;;;;;;;1.87;1.27;;;;;;;13.43;59.68;99524.19;31514762;28;20060;-85
2023/04/02 08:33:39;;;;;;;2.17;1.50;;;;;;;13.27;67.06;99506.88;31531398;28;20052;-82
2023/04/02 08:48:46;;;;;;;3.20;1.57;;;;;;;12.94;95.50;99533.09;31564315;28;20041;-82
2023/04/02 09:03:50;;;;;;;3.13;1.60;;;;;;;12.85;100.00;99546.66;31498405;28;20113;-83
2023/04/02 09:18:55;;;;;;;3.87;1.90;;;;;;;12.95;100.00;99557.16;31547695;28;20060;-85
2023/04/02 09:34:01;;;;;;;2.97;1.90;;;;;;;12.78;100.00;99557.81;31528266;28;20053;-84
2023/04/02 09:49:03;;;;;;;6.97;1.70;;;;;;;13.07;100.00;99550.09;31472840;28;20544;-86
2023/04/02 10:04:37;;;;;;;6.60;1.40;;;;;;;12.76;100.00;99533.00;31507791;28;20086;-81
2023/04/02 10:19:48;;;;;;;2.67;2.10;;;;;;;13.05;100.00;99511.63;31495183;28;20048;-85
2023/04/02 10:34:50;;;;;;;2.27;1.70;;;;;;;12.98;100.00;99518.13;31519112;28;20075;-85
2023/04/02 10:50:13;;;;;;;6.03;2.00;;;;;;;13.41;100.00;99505.56;31545021;28;20109;-83
2023/04/02 11:05:27;;;;;;;3.47;1.63;;;;;;;13.80;99.32;99514.84;31422569;28;20041;-83
2023/04/02 11:20:55;;;;;;;5.13;2.10;;;;;;;13.96;95.57;99489.22;31395227;28;20061;-83
2023/04/02 11:35:57;;;;;;;4.97;1.40;;;;;;;13.88;99.96;99486.06;31501857;28;20041;-85
2023/04/02 11:51:03;;;;;;;2.03;1.20;;;;;;;13.55;100.00;99479.66;31493875;28;20056;-84
2023/04/02 12:06:24;;;;;;;1.37;1.00;;;;;;;13.28;100.00;99502.94;31445024;28;20048;-84
2023/04/02 12:21:28;;;;;;;1.73;1.13;;;;;;;12.56;100.00;99493.25;31321985;28;20591;-82
2023/04/02 12:36:30;;;;;;;3.20;1.43;;;;;;;12.15;100.00;99497.09;31327193;28;20491;-83
2023/04/02 12:51:35;;;;;;;2.47;1.73;;;;;;;12.37;100.00;99513.41;31372897;28;20136;-81
2023/04/02 13:06:39;;;;;;;2.23;1.20;;;;;;;11.69;100.00;99528.59;31295629;28;20053;-84
2023/04/02 13:21:58;;;;;;;2.47;1.77;;;;;;;10.47;100.00;99544.34;31469306;28;20490;-84
2023/04/02 13:37:00;;;;;;;2.95;1.52;;;;;;;9.82;100.00;99539.09;31500036;28;20072;-86
2023/04/02 13:52:14;;;;;;;4.50;1.70;;;;;;;9.31;100.00;99526.44;31499987;28;20059;-87
2023/04/02 14:07:22;;;;;;;3.87;2.03;;;;;;;9.05;100.00;99525.47;31491629;28;20056;-85
2023/04/02 14:22:46;;;;;;;31.40;13.10;;;;;;;9.01;100.00;99509.31;31383833;28;20061;-84
2023/04/02 14:38:16;;;;;;;7.00;3.13;;;;;;;9.01;100.00;99482.22;31385189;28;20075;-85
2023/04/02 14:53:51;;;;;;;9.13;3.13;;;;;;;9.17;100.00;99484.97;31389526;28;20092;-87
2023/04/02 15:09:02;;;;;;;8.23;5.07;;;;;;;9.27;100.00;99471.56;31299737;28;20049;-84
2023/04/02 15:24:17;;;;;;;9.47;4.53;;;;;;;9.41;100.00;99465.81;31362307;28;20060;-84
2023/04/02 15:39:41;;;;;;;11.77;5.87;;;;;;;9.56;100.00;99472.41;31388492;28;20045;-84
2023/04/02 15:54:55;;;;;;;13.97;6.80;;;;;;;9.55;100.00;99477.06;31361256;28;20494;-87
2023/04/02 16:10:20;;;;;;;14.37;6.70;;;;;;;9.22;100.00;99460.06;31401057;28;20398;-85
2023/04/02 16:25:58;;;;;;;18.00;8.63;;;;;;;9.34;100.00;99449.75;31393067;28;20056;-84
2023/04/02 16:41:18;;;;;;;11.87;7.27;;;;;;;9.57;100.00;99450.28;31428569;28;20052;-86
2023/04/02 16:56:54;;;;;;;12.93;7.10;;;;;;;9.73;100.00;99465.75;31419755;28;20070;-84
2023/04/02 17:12:12;;;;;;;14.60;7.90;;;;;;;9.76;100.00;99454.06;31467395;28;20413;-84
2023/04/02 17:27:30;;;;;;;17.57;9.43;;;;;;;9.86;100.00;99444.88;31529910;28;20451;-84
2023/04/02 17:43:06;;;;;;;19.20;9.97;;;;;;;9.88;100.00;99450.66;31502085;28;20051;-84
2023/04/02 17:58:53;;;;;;;16.83;9.90;;;;;;;10.06;100.00;99417.59;31431518;28;20397;-85
2023/04/02 18:14:21;;;;;;;21.40;9.97;;;;;;;10.08;100.00;99403.63;31507818;28;20498;-84
2023/04/02 18:30:01;;;;;;;15.83;7.30;;;;;;;9.84;100.00;99401.19;31561781;28;20066;-85
2023/04/02 18:45:13;;;;;;;11.53;6.43;;;;;;;9.78;100.00;99394.75;31511327;28;20516;-88
2023/04/02 19:00:18;;;;;;;10.90;6.03;;;;;;;9.71;100.00;99392.22;31488898;28;20053;-85
2023/04/02 19:15:49;;;;;;;12.23;6.70;;;;;;;9.44;100.00;99379.06;31537626;28;20052;-85
2023/04/02 19:46:51;;;;;;;12.73;7.03;;;;;;;9.29;100.00;99355.44;31458364;28;20440;-86
2023/04/02 20:01:53;;;;;;;11.40;6.13;;;;;;;9.07;100.00;99334.34;31409659;28;20589;-86
2023/04/02 20:16:56;;;;;;;11.70;6.47;;;;;;;9.14;100.00;99328.75;31442272;28;20080;-85
2023/04/02 20:48:17;;;;;;;12.10;6.50;;;;;;;9.13;100.00;99294.75;31495017;28;20053;-87
2023/04/02 21:03:29;;;;;;;12.70;6.47;;;;;;;9.04;100.00;99285.69;31511002;28;20094;-84
2023/04/02 21:18:34;;;;;;;12.10;5.97;;;;;;;8.94;100.00;99268.56;31498669;28;20049;-85
2023/04/02 21:33:41;;;;;;;13.80;6.30;;;;;;;9.03;100.00;99232.75;31501454;28;20139;-84
2023/04/02 21:48:45;;;;;;;16.37;10.13;;;;;;;9.24;100.00;99222.09;31566643;28;20394;-85
2023/04/02 22:04:14;;;;;;;8.17;4.93;;;;;;;9.13;100.00;99202.69;31459892;28;20051;-86
2023/04/02 22:19:19;;;;;;;5.87;4.47;;;;;;;9.11;100.00;99182.63;31509561;28;20049;-83
2023/04/02 22:34:21;;;;;;;12.47;5.73;;;;;;;9.16;100.00;99180.16;31582530;28;20051;-85
2023/04/02 22:49:23;;;;;;;9.67;4.73;;;;;;;9.24;100.00;99159.78;31539636;28;20041;-84
2023/04/02 23:04:25;;;;;;;15.40;4.97;;;;;;;9.21;100.00;99149.09;31514128;28;20059;-85
2023/04/02 23:19:27;;;;;;;10.70;5.10;;;;;;;9.28;100.00;99121.78;31516960;28;20044;-83
2023/04/02 23:34:30;;;;;;;8.33;4.40;;;;;;;9.55;100.00;99122.09;31531108;28;21155;-84
2023/04/02 23:49:33;;;;;;;8.70;3.80;;;;;;;9.58;100.00;99093.41;31518317;28;20048;-87
